sensor_id;sensor_type;location;lat;lon;timestamp;temperature;humidity
55329;DHT22;41205;44.264;19.884;2023-12-22T00:00:35;333.00;1996.80
55329;DHT22;41205;44.264;19.884;2023-12-22T00:03:01;332.90;1996.80
55329;DHT22;41205;44.264;19.884;2023-12-22T00:08:48;332.90;1996.80
55329;DHT22;41205;44.264;19.884;2023-12-22T00:11:14;332.90;1996.80
55329;DHT22;41205;44.264;19.884;2023-12-22T00:13:40;332.80;2022.40
55329;DHT22;41205;44.264;19.884;2023-12-22T00:16:06;332.80;2022.40
55329;DHT22;41205;44.264;19.884;2023-12-22T00:18:31;332.90;1996.80
55329;DHT22;41205;44.264;19.884;2023-12-22T00:21:22;332.90;1996.80
55329;DHT22;41205;44.264;19.884;2023-12-22T00:23:47;332.90;1971.20
55329;DHT22;41205;44.264;19.884;2023-12-22T00:26:13;332.90;1971.20
55329;DHT22;41205;44.264;19.884;2023-12-22T00:28:40;332.80;1996.80
55329;DHT22;41205;44.264;19.884;2023-12-22T00:31:07;332.80;1996.80
55329;DHT22;41205;44.264;19.884;2023-12-22T00:33:33;332.80;1996.80
55329;DHT22;41205;44.264;19.884;2023-12-22T00:35:59;332.80;1996.80
55329;DHT22;41205;44.264;19.884;2023-12-22T00:38:24;308.10;1996.80
55329;DHT22;41205;44.264;19.884;2023-12-22T00:40:50;308.10;1996.80
55329;DHT22;41205;44.264;19.884;2023-12-22T00:43:16;308.10;1996.80
55329;DHT22;41205;44.264;19.884;2023-12-22T00:45:41;308.00;2022.40
55329;DHT22;41205;44.264;19.884;2023-12-22T00:48:07;308.00;2022.40
55329;DHT22;41205;44.264;19.884;2023-12-22T00:50:33;332.80;2022.40
55329;DHT22;41205;44.264;19.884;2023-12-22T00:52:59;308.10;1996.80
55329;DHT22;41205;44.264;19.884;2023-12-22T00:55:24;308.10;1996.80
55329;DHT22;41205;44.264;19.884;2023-12-22T00:57:50;308.10;1996.80
55329;DHT22;41205;44.264;19.884;2023-12-22T01:00:16;332.80;2022.40
55329;DHT22;41205;44.264;19.884;2023-12-22T01:02:42;308.10;1996.80
55329;DHT22;41205;44.264;19.884;2023-12-22T01:05:08;308.10;1996.80
55329;DHT22;41205;44.264;19.884;2023-12-22T01:07:33;308.10;2022.40
55329;DHT22;41205;44.264;19.884;2023-12-22T01:09:59;308.10;2022.40
55329;DHT22;41205;44.264;19.884;2023-12-22T01:12:27;308.10;2022.40
55329;DHT22;41205;44.264;19.884;2023-12-22T01:14:55;308.10;2022.40
55329;DHT22;41205;44.264;19.884;2023-12-22T01:17:20;308.00;1996.80
55329;DHT22;41205;44.264;19.884;2023-12-22T01:19:46;308.00;2022.40
55329;DHT22;41205;44.264;19.884;2023-12-22T01:22:12;308.10;1996.80
55329;DHT22;41205;44.264;19.884;2023-12-22T01:24:38;308.10;2022.40
55329;DHT22;41205;44.264;19.884;2023-12-22T01:27:06;332.80;2022.40
55329;DHT22;41205;44.264;19.884;2023-12-22T01:29:32;332.80;2048.00
55329;DHT22;41205;44.264;19.884;2023-12-22T01:31:58;332.80;2048.00
55329;DHT22;41205;44.264;19.884;2023-12-22T01:34:24;332.80;2048.00
55329;DHT22;41205;44.264;19.884;2023-12-22T01:36:49;332.80;2048.00
55329;DHT22;41205;44.264;19.884;2023-12-22T01:39:16;332.80;2048.00
55329;DHT22;41205;44.264;19.884;2023-12-22T01:41:41;332.80;2073.60
55329;DHT22;41205;44.264;19.884;2023-12-22T01:44:07;332.80;2073.60
55329;DHT22;41205;44.264;19.884;2023-12-22T01:46:33;332.80;2073.60
55329;DHT22;41205;44.264;19.884;2023-12-22T01:49:00;332.90;2099.20
55329;DHT22;41205;44.264;19.884;2023-12-22T01:51:32;332.80;2099.20
55329;DHT22;41205;44.264;19.884;2023-12-22T01:54:00;332.80;2099.20
55329;DHT22;41205;44.264;19.884;2023-12-22T01:56:26;332.90;2099.20
55329;DHT22;41205;44.264;19.884;2023-12-22T01:58:59;332.90;2124.80
55329;DHT22;41205;44.264;19.884;2023-12-22T02:01:28;332.90;2124.80
55329;DHT22;41205;44.264;19.884;2023-12-22T02:03:54;332.90;2150.40
55329;DHT22;41205;44.264;19.884;2023-12-22T02:06:21;332.90;2150.40
55329;DHT22;41205;44.264;19.884;2023-12-22T02:08:47;332.90;2150.40
55329;DHT22;41205;44.264;19.884;2023-12-22T02:11:16;332.90;2176.00
55329;DHT22;41205;44.264;19.884;2023-12-22T02:13:42;332.90;2176.00
55329;DHT22;41205;44.264;19.884;2023-12-22T02:16:25;332.90;2176.00
55329;DHT22;41205;44.264;19.884;2023-12-22T02:18:55;332.90;2176.00
55329;DHT22;41205;44.264;19.884;2023-12-22T02:21:21;332.80;2201.60
55329;DHT22;41205;44.264;19.884;2023-12-22T02:23:49;332.90;2176.00
55329;DHT22;41205;44.264;19.884;2023-12-22T02:26:25;332.80;2201.60
55329;DHT22;41205;44.264;19.884;2023-12-22T02:28:53;332.80;2201.60
55329;DHT22;41205;44.264;19.884;2023-12-22T02:31:36;332.80;2201.60
55329;DHT22;41205;44.264;19.884;2023-12-22T02:34:05;332.80;2201.60
55329;DHT22;41205;44.264;19.884;2023-12-22T02:36:35;332.80;2201.60
55329;DHT22;41205;44.264;19.884;2023-12-22T02:39:02;332.80;2201.60
55329;DHT22;41205;44.264;19.884;2023-12-22T02:41:29;332.80;2201.60
55329;DHT22;41205;44.264;19.884;2023-12-22T02:43:55;332.90;2201.60
55329;DHT22;41205;44.264;19.884;2023-12-22T02:46:21;332.90;2201.60
55329;DHT22;41205;44.264;19.884;2023-12-22T02:48:47;332.90;2201.60
55329;DHT22;41205;44.264;19.884;2023-12-22T02:51:13;332.80;2201.60
55329;DHT22;41205;44.264;19.884;2023-12-22T02:53:38;332.90;2201.60
55329;DHT22;41205;44.264;19.884;2023-12-22T02:56:04;332.90;2201.60
55329;DHT22;41205;44.264;19.884;2023-12-22T02:58:30;332.90;2201.60
55329;DHT22;41205;44.264;19.884;2023-12-22T03:00:56;332.90;2201.60
55329;DHT22;41205;44.264;19.884;2023-12-22T03:03:22;333.00;2201.60
55329;DHT22;41205;44.264;19.884;2023-12-22T03:05:47;333.00;2201.60
55329;DHT22;41205;44.264;19.884;2023-12-22T03:08:13;333.00;2201.60
55329;DHT22;41205;44.264;19.884;2023-12-22T03:10:39;333.00;2176.00
55329;DHT22;41205;44.264;19.884;2023-12-22T03:13:05;333.20;2176.00
55329;DHT22;41205;44.264;19.884;2023-12-22T03:15:30;333.10;2176.00
55329;DHT22;41205;44.264;19.884;2023-12-22T03:17:56;333.20;2176.00
55329;DHT22;41205;44.264;19.884;2023-12-22T03:20:22;333.20;2176.00
55329;DHT22;41205;44.264;19.884;2023-12-22T03:22:47;333.20;2176.00
55329;DHT22;41205;44.264;19.884;2023-12-22T03:25:13;333.10;2176.00
55329;DHT22;41205;44.264;19.884;2023-12-22T03:27:39;333.10;2176.00
55329;DHT22;41205;44.264;19.884;2023-12-22T03:30:05;333.10;2176.00
55329;DHT22;41205;44.264;19.884;2023-12-22T03:32:31;333.10;2201.60
55329;DHT22;41205;44.264;19.884;2023-12-22T03:34:57;333.10;2201.60
55329;DHT22;41205;44.264;19.884;2023-12-22T03:37:22;333.10;2201.60
55329;DHT22;41205;44.264;19.884;2023-12-22T03:39:48;333.10;2201.60
55329;DHT22;41205;44.264;19.884;2023-12-22T03:42:14;333.10;2227.20
55329;DHT22;41205;44.264;19.884;2023-12-22T03:44:39;333.00;2227.20
55329;DHT22;41205;44.264;19.884;2023-12-22T03:47:05;333.00;2227.20
55329;DHT22;41205;44.264;19.884;2023-12-22T03:49:31;333.00;2201.60
55329;DHT22;41205;44.264;19.884;2023-12-22T03:51:56;333.00;2227.20
55329;DHT22;41205;44.264;19.884;2023-12-22T03:54:22;333.00;2201.60
55329;DHT22;41205;44.264;19.884;2023-12-22T03:56:49;333.00;2201.60
55329;DHT22;41205;44.264;19.884;2023-12-22T03:59:15;333.00;2201.60
55329;DHT22;41205;44.264;19.884;2023-12-22T04:01:44;333.00;2201.60
55329;DHT22;41205;44.264;19.884;2023-12-22T04:04:09;333.00;2201.60
55329;DHT22;41205;44.264;19.884;2023-12-22T04:06:39;333.00;2201.60
55329;DHT22;41205;44.264;19.884;2023-12-22T04:09:05;333.10;2201.60
55329;DHT22;41205;44.264;19.884;2023-12-22T04:11:31;333.00;2201.60
55329;DHT22;41205;44.264;19.884;2023-12-22T04:13:58;333.10;2201.60
55329;DHT22;41205;44.264;19.884;2023-12-22T04:16:23;333.00;2227.20
55329;DHT22;41205;44.264;19.884;2023-12-22T04:18:49;333.00;2227.20
55329;DHT22;41205;44.264;19.884;2023-12-22T04:21:15;333.00;2201.60
55329;DHT22;41205;44.264;19.884;2023-12-22T04:23:41;333.20;2227.20
55329;DHT22;41205;44.264;19.884;2023-12-22T04:26:07;333.10;2252.80
55329;DHT22;41205;44.264;19.884;2023-12-22T04:28:33;333.00;2304.00
55329;DHT22;41205;44.264;19.884;2023-12-22T04:30:58;332.80;2329.60
55329;DHT22;41205;44.264;19.884;2023-12-22T04:33:24;308.10;2304.00
55329;DHT22;41205;44.264;19.884;2023-12-22T04:35:50;308.10;2304.00
55329;DHT22;41205;44.264;19.884;2023-12-22T04:38:16;308.00;2304.00
55329;DHT22;41205;44.264;19.884;2023-12-22T04:40:41;307.80;2304.00
55329;DHT22;41205;44.264;19.884;2023-12-22T04:43:07;307.80;2304.00
55329;DHT22;41205;44.264;19.884;2023-12-22T04:45:33;307.80;2304.00
55329;DHT22;41205;44.264;19.884;2023-12-22T04:47:58;307.80;2304.00
55329;DHT22;41205;44.264;19.884;2023-12-22T04:50:24;307.80;2304.00
55329;DHT22;41205;44.264;19.884;2023-12-22T04:52:50;307.80;2304.00
55329;DHT22;41205;44.264;19.884;2023-12-22T04:55:16;307.80;2304.00
55329;DHT22;41205;44.264;19.884;2023-12-22T04:57:41;307.50;2304.00
55329;DHT22;41205;44.264;19.884;2023-12-22T05:00:07;307.20;2304.00
55329;DHT22;41205;44.264;19.884;2023-12-22T05:02:33;307.20;2304.00
55329;DHT22;41205;44.264;19.884;2023-12-22T05:04:59;307.20;2304.00
55329;DHT22;41205;44.264;19.884;2023-12-22T05:07:26;282.40;2278.40
55329;DHT22;41205;44.264;19.884;2023-12-22T05:09:53;282.40;2278.40
55329;DHT22;41205;44.264;19.884;2023-12-22T05:12:20;282.20;2278.40
55329;DHT22;41205;44.264;19.884;2023-12-22T05:14:45;282.30;2278.40
55329;DHT22;41205;44.264;19.884;2023-12-22T05:17:11;282.40;2278.40
55329;DHT22;41205;44.264;19.884;2023-12-22T05:19:37;282.50;2278.40
55329;DHT22;41205;44.264;19.884;2023-12-22T05:22:03;282.50;2278.40
55329;DHT22;41205;44.264;19.884;2023-12-22T05:24:29;282.40;2278.40
55329;DHT22;41205;44.264;19.884;2023-12-22T05:26:55;282.50;2278.40
55329;DHT22;41205;44.264;19.884;2023-12-22T05:29:21;282.30;2278.40
55329;DHT22;41205;44.264;19.884;2023-12-22T05:31:46;282.50;2278.40
55329;DHT22;41205;44.264;19.884;2023-12-22T05:34:12;282.30;2278.40
55329;DHT22;41205;44.264;19.884;2023-12-22T05:36:38;282.30;2278.40
55329;DHT22;41205;44.264;19.884;2023-12-22T05:39:04;282.10;2278.40
55329;DHT22;41205;44.264;19.884;2023-12-22T05:41:29;282.10;2278.40
55329;DHT22;41205;44.264;19.884;2023-12-22T05:43:55;282.20;2278.40
55329;DHT22;41205;44.264;19.884;2023-12-22T05:46:21;282.00;2278.40
55329;DHT22;41205;44.264;19.884;2023-12-22T05:48:46;281.70;2278.40
55329;DHT22;41205;44.264;19.884;2023-12-22T05:51:12;281.70;2278.40
55329;DHT22;41205;44.264;19.884;2023-12-22T05:53:41;281.70;2278.40
55329;DHT22;41205;44.264;19.884;2023-12-22T05:56:22;281.80;2278.40
55329;DHT22;41205;44.264;19.884;2023-12-22T05:58:49;281.70;2278.40
55329;DHT22;41205;44.264;19.884;2023-12-22T06:01:18;256.80;2252.80
55329;DHT22;41205;44.264;19.884;2023-12-22T06:03:48;256.50;2252.80
55329;DHT22;41205;44.264;19.884;2023-12-22T06:06:14;256.60;2252.80
55329;DHT22;41205;44.264;19.884;2023-12-22T06:08:40;256.50;2252.80
55329;DHT22;41205;44.264;19.884;2023-12-22T06:11:05;256.70;2252.80
55329;DHT22;41205;44.264;19.884;2023-12-22T06:13:31;256.60;2252.80
55329;DHT22;41205;44.264;19.884;2023-12-22T06:15:57;256.70;2252.80
55329;DHT22;41205;44.264;19.884;2023-12-22T06:18:23;256.90;2252.80
55329;DHT22;41205;44.264;19.884;2023-12-22T06:20:49;256.90;2252.80
55329;DHT22;41205;44.264;19.884;2023-12-22T06:23:15;256.90;2252.80
55329;DHT22;41205;44.264;19.884;2023-12-22T06:25:41;281.60;2278.40
55329;DHT22;41205;44.264;19.884;2023-12-22T06:28:07;256.90;2252.80
55329;DHT22;41205;44.264;19.884;2023-12-22T06:30:32;281.70;2278.40
55329;DHT22;41205;44.264;19.884;2023-12-22T06:32:58;281.70;2278.40
55329;DHT22;41205;44.264;19.884;2023-12-22T06:35:24;281.70;2278.40
55329;DHT22;41205;44.264;19.884;2023-12-22T06:37:51;281.70;2278.40
55329;DHT22;41205;44.264;19.884;2023-12-22T06:40:17;281.70;2278.40
55329;DHT22;41205;44.264;19.884;2023-12-22T06:42:46;281.70;2278.40
55329;DHT22;41205;44.264;19.884;2023-12-22T06:45:12;281.80;2278.40
55329;DHT22;41205;44.264;19.884;2023-12-22T06:47:38;281.70;2278.40
55329;DHT22;41205;44.264;19.884;2023-12-22T06:50:04;256.90;2252.80
55329;DHT22;41205;44.264;19.884;2023-12-22T06:52:30;256.90;2252.80
55329;DHT22;41205;44.264;19.884;2023-12-22T06:54:56;256.90;2252.80
55329;DHT22;41205;44.264;19.884;2023-12-22T06:57:22;281.60;2278.40
55329;DHT22;41205;44.264;19.884;2023-12-22T06:59:48;256.90;2252.80
55329;DHT22;41205;44.264;19.884;2023-12-22T07:02:16;256.90;2252.80
55329;DHT22;41205;44.264;19.884;2023-12-22T07:07:46;256.90;2252.80
55329;DHT22;41205;44.264;19.884;2023-12-22T07:10:12;256.80;2252.80
55329;DHT22;41205;44.264;19.884;2023-12-22T07:12:38;256.70;2252.80
55329;DHT22;41205;44.264;19.884;2023-12-22T07:15:05;256.60;2252.80
55329;DHT22;41205;44.264;19.884;2023-12-22T07:17:32;256.50;2252.80
55329;DHT22;41205;44.264;19.884;2023-12-22T07:19:58;256.60;2252.80
55329;DHT22;41205;44.264;19.884;2023-12-22T07:22:24;256.60;2252.80
55329;DHT22;41205;44.264;19.884;2023-12-22T07:24:50;256.20;2252.80
55329;DHT22;41205;44.264;19.884;2023-12-22T07:27:18;256.60;2252.80
55329;DHT22;41205;44.264;19.884;2023-12-22T07:29:44;256.40;2252.80
55329;DHT22;41205;44.264;19.884;2023-12-22T07:32:09;256.40;2252.80
55329;DHT22;41205;44.264;19.884;2023-12-22T07:34:35;256.50;2252.80
55329;DHT22;41205;44.264;19.884;2023-12-22T07:37:01;256.50;2252.80
55329;DHT22;41205;44.264;19.884;2023-12-22T07:39:27;256.40;2252.80
55329;DHT22;41205;44.264;19.884;2023-12-22T07:41:52;256.30;2252.80
55329;DHT22;41205;44.264;19.884;2023-12-22T07:44:18;256.20;2252.80
55329;DHT22;41205;44.264;19.884;2023-12-22T07:46:44;256.20;2252.80
55329;DHT22;41205;44.264;19.884;2023-12-22T07:49:10;256.10;2252.80
55329;DHT22;41205;44.264;19.884;2023-12-22T07:51:35;256.00;2252.80
55329;DHT22;41205;44.264;19.884;2023-12-22T07:54:01;231.30;2252.80
55329;DHT22;41205;44.264;19.884;2023-12-22T07:56:27;231.30;2252.80
55329;DHT22;41205;44.264;19.884;2023-12-22T07:58:53;256.00;2252.80
55329;DHT22;41205;44.264;19.884;2023-12-22T08:01:19;231.30;2252.80
55329;DHT22;41205;44.264;19.884;2023-12-22T08:03:44;231.30;2252.80
55329;DHT22;41205;44.264;19.884;2023-12-22T08:06:10;231.20;2252.80
55329;DHT22;41205;44.264;19.884;2023-12-22T08:08:36;231.20;2252.80
55329;DHT22;41205;44.264;19.884;2023-12-22T08:11:02;231.30;2252.80
55329;DHT22;41205;44.264;19.884;2023-12-22T08:13:28;231.30;2252.80
55329;DHT22;41205;44.264;19.884;2023-12-22T08:15:53;256.00;2252.80
55329;DHT22;41205;44.264;19.884;2023-12-22T08:18:19;256.10;2252.80
55329;DHT22;41205;44.264;19.884;2023-12-22T08:20:45;256.20;2252.80
55329;DHT22;41205;44.264;19.884;2023-12-22T08:23:11;256.30;2252.80
55329;DHT22;41205;44.264;19.884;2023-12-22T08:25:37;256.70;2252.80
55329;DHT22;41205;44.264;19.884;2023-12-22T08:28:05;281.70;2278.40
55329;DHT22;41205;44.264;19.884;2023-12-22T08:30:30;281.70;2278.40
55329;DHT22;41205;44.264;19.884;2023-12-22T08:32:56;281.70;2278.40
55329;DHT22;41205;44.264;19.884;2023-12-22T08:35:22;281.70;2278.40
55329;DHT22;41205;44.264;19.884;2023-12-22T08:37:48;256.90;2252.80
55329;DHT22;41205;44.264;19.884;2023-12-22T08:40:14;256.70;2252.80
55329;DHT22;41205;44.264;19.884;2023-12-22T08:42:39;256.80;2252.80
55329;DHT22;41205;44.264;19.884;2023-12-22T08:45:05;256.70;2252.80
55329;DHT22;41205;44.264;19.884;2023-12-22T08:47:31;256.70;2252.80
55329;DHT22;41205;44.264;19.884;2023-12-22T08:49:57;256.80;2252.80
55329;DHT22;41205;44.264;19.884;2023-12-22T08:52:23;256.90;2252.80
55329;DHT22;41205;44.264;19.884;2023-12-22T08:54:49;256.90;2252.80
55329;DHT22;41205;44.264;19.884;2023-12-22T08:57:14;281.80;2278.40
55329;DHT22;41205;44.264;19.884;2023-12-22T08:59:40;282.00;2278.40
55329;DHT22;41205;44.264;19.884;2023-12-22T09:02:06;281.90;2278.40
55329;DHT22;41205;44.264;19.884;2023-12-22T09:04:31;282.00;2278.40
55329;DHT22;41205;44.264;19.884;2023-12-22T09:06:57;281.80;2278.40
55329;DHT22;41205;44.264;19.884;2023-12-22T09:09:23;281.80;2278.40
55329;DHT22;41205;44.264;19.884;2023-12-22T09:11:50;281.80;2278.40
55329;DHT22;41205;44.264;19.884;2023-12-22T09:14:15;281.70;2278.40
55329;DHT22;41205;44.264;19.884;2023-12-22T09:16:41;281.60;2278.40
55329;DHT22;41205;44.264;19.884;2023-12-22T09:19:09;281.60;2278.40
55329;DHT22;41205;44.264;19.884;2023-12-22T09:21:35;256.90;2252.80
55329;DHT22;41205;44.264;19.884;2023-12-22T09:24:01;256.90;2252.80
55329;DHT22;41205;44.264;19.884;2023-12-22T09:26:27;256.90;2252.80
55329;DHT22;41205;44.264;19.884;2023-12-22T09:28:54;256.90;2252.80
55329;DHT22;41205;44.264;19.884;2023-12-22T09:31:20;256.90;2252.80
55329;DHT22;41205;44.264;19.884;2023-12-22T09:33:47;281.60;2278.40
55329;DHT22;41205;44.264;19.884;2023-12-22T09:36:14;281.70;2278.40
55329;DHT22;41205;44.264;19.884;2023-12-22T09:38:40;256.90;2252.80
55329;DHT22;41205;44.264;19.884;2023-12-22T09:41:07;281.70;2278.40
55329;DHT22;41205;44.264;19.884;2023-12-22T09:43:35;281.70;2278.40
55329;DHT22;41205;44.264;19.884;2023-12-22T09:46:03;281.70;2278.40
55329;DHT22;41205;44.264;19.884;2023-12-22T09:48:30;281.90;2278.40
55329;DHT22;41205;44.264;19.884;2023-12-22T09:50:57;282.00;2278.40
55329;DHT22;41205;44.264;19.884;2023-12-22T09:53:24;282.00;2278.40
55329;DHT22;41205;44.264;19.884;2023-12-22T09:55:53;282.00;2278.40
55329;DHT22;41205;44.264;19.884;2023-12-22T09:58:19;282.00;2278.40
55329;DHT22;41205;44.264;19.884;2023-12-22T10:00:45;282.00;2278.40
55329;DHT22;41205;44.264;19.884;2023-12-22T10:03:13;281.90;2278.40
55329;DHT22;41205;44.264;19.884;2023-12-22T10:05:41;282.00;2278.40
55329;DHT22;41205;44.264;19.884;2023-12-22T10:08:08;282.00;2278.40
55329;DHT22;41205;44.264;19.884;2023-12-22T10:10:41;282.00;2278.40
55329;DHT22;41205;44.264;19.884;2023-12-22T10:13:09;282.00;2278.40
55329;DHT22;41205;44.264;19.884;2023-12-22T10:15:39;282.00;2278.40
55329;DHT22;41205;44.264;19.884;2023-12-22T10:18:06;282.00;2278.40
55329;DHT22;41205;44.264;19.884;2023-12-22T10:20:32;282.00;2278.40
55329;DHT22;41205;44.264;19.884;2023-12-22T10:22:58;282.00;2278.40
55329;DHT22;41205;44.264;19.884;2023-12-22T10:25:28;282.00;2278.40
55329;DHT22;41205;44.264;19.884;2023-12-22T10:27:58;282.00;2278.40
55329;DHT22;41205;44.264;19.884;2023-12-22T10:30:24;282.10;2278.40
55329;DHT22;41205;44.264;19.884;2023-12-22T10:32:53;282.20;2278.40
55329;DHT22;41205;44.264;19.884;2023-12-22T10:35:22;282.40;2278.40
55329;DHT22;41205;44.264;19.884;2023-12-22T10:37:49;307.20;2304.00
55329;DHT22;41205;44.264;19.884;2023-12-22T10:40:19;307.30;2304.00
55329;DHT22;41205;44.264;19.884;2023-12-22T10:42:45;307.30;2304.00
55329;DHT22;41205;44.264;19.884;2023-12-22T10:45:12;307.20;2304.00
55329;DHT22;41205;44.264;19.884;2023-12-22T10:47:39;307.30;2304.00
55329;DHT22;41205;44.264;19.884;2023-12-22T10:50:08;307.20;2304.00
55329;DHT22;41205;44.264;19.884;2023-12-22T10:52:34;307.30;2304.00
55329;DHT22;41205;44.264;19.884;2023-12-22T10:55:00;307.40;2304.00
55329;DHT22;41205;44.264;19.884;2023-12-22T10:57:32;307.30;2304.00
55329;DHT22;41205;44.264;19.884;2023-12-22T11:00:04;307.20;2304.00
55329;DHT22;41205;44.264;19.884;2023-12-22T11:02:32;282.40;2278.40
55329;DHT22;41205;44.264;19.884;2023-12-22T11:05:09;282.20;2278.40
55329;DHT22;41205;44.264;19.884;2023-12-22T11:07:36;282.20;2278.40
55329;DHT22;41205;44.264;19.884;2023-12-22T11:10:04;282.10;2278.40
55329;DHT22;41205;44.264;19.884;2023-12-22T11:12:38;282.10;2278.40
55329;DHT22;41205;44.264;19.884;2023-12-22T11:15:05;282.10;2278.40
55329;DHT22;41205;44.264;19.884;2023-12-22T11:17:33;282.00;2278.40
55329;DHT22;41205;44.264;19.884;2023-12-22T11:19:59;282.00;2278.40
55329;DHT22;41205;44.264;19.884;2023-12-22T11:22:26;282.10;2278.40
55329;DHT22;41205;44.264;19.884;2023-12-22T11:24:52;282.20;2278.40
55329;DHT22;41205;44.264;19.884;2023-12-22T11:27:20;282.20;2278.40
55329;DHT22;41205;44.264;19.884;2023-12-22T11:29:48;282.30;2278.40
55329;DHT22;41205;44.264;19.884;2023-12-22T11:32:18;282.30;2278.40
55329;DHT22;41205;44.264;19.884;2023-12-22T11:34:45;282.30;2278.40
55329;DHT22;41205;44.264;19.884;2023-12-22T11:37:13;282.50;2278.40
55329;DHT22;41205;44.264;19.884;2023-12-22T11:39:40;282.50;2278.40
55329;DHT22;41205;44.264;19.884;2023-12-22T11:42:15;282.40;2278.40
55329;DHT22;41205;44.264;19.884;2023-12-22T11:44:41;282.30;2278.40
55329;DHT22;41205;44.264;19.884;2023-12-22T11:47:08;282.50;2278.40
55329;DHT22;41205;44.264;19.884;2023-12-22T11:49:37;282.40;2252.80
55329;DHT22;41205;44.264;19.884;2023-12-22T11:52:14;282.30;2278.40
55329;DHT22;41205;44.264;19.884;2023-12-22T11:54:50;282.40;2278.40
55329;DHT22;41205;44.264;19.884;2023-12-22T12:02:26;282.20;2278.40
55329;DHT22;41205;44.264;19.884;2023-12-22T12:04:53;282.30;2278.40
55329;DHT22;41205;44.264;19.884;2023-12-22T12:07:45;282.40;2278.40
55329;DHT22;41205;44.264;19.884;2023-12-22T12:10:21;282.50;2278.40
55329;DHT22;41205;44.264;19.884;2023-12-22T12:13:12;307.30;2304.00
55329;DHT22;41205;44.264;19.884;2023-12-22T12:15:41;282.50;2278.40
55329;DHT22;41205;44.264;19.884;2023-12-22T12:18:08;282.50;2278.40
55329;DHT22;41205;44.264;19.884;2023-12-22T12:20:35;282.50;2278.40
55329;DHT22;41205;44.264;19.884;2023-12-22T12:23:01;307.30;2304.00
55329;DHT22;41205;44.264;19.884;2023-12-22T12:25:32;307.30;2304.00
55329;DHT22;41205;44.264;19.884;2023-12-22T12:30:28;307.30;2304.00
55329;DHT22;41205;44.264;19.884;2023-12-22T12:32:54;307.20;2304.00
55329;DHT22;41205;44.264;19.884;2023-12-22T12:35:20;282.50;2278.40
55329;DHT22;41205;44.264;19.884;2023-12-22T12:37:49;282.50;2278.40
55329;DHT22;41205;44.264;19.884;2023-12-22T12:40:19;282.50;2278.40
55329;DHT22;41205;44.264;19.884;2023-12-22T12:42:46;282.40;2278.40
55329;DHT22;41205;44.264;19.884;2023-12-22T12:45:12;282.20;2278.40
55329;DHT22;41205;44.264;19.884;2023-12-22T12:47:38;282.10;2278.40
55329;DHT22;41205;44.264;19.884;2023-12-22T12:50:04;281.90;2278.40
55329;DHT22;41205;44.264;19.884;2023-12-22T12:52:30;282.00;2278.40
55329;DHT22;41205;44.264;19.884;2023-12-22T12:54:56;282.10;2278.40
55329;DHT22;41205;44.264;19.884;2023-12-22T12:57:24;282.10;2278.40
55329;DHT22;41205;44.264;19.884;2023-12-22T12:59:50;282.00;2278.40
55329;DHT22;41205;44.264;19.884;2023-12-22T13:02:19;281.90;2278.40
55329;DHT22;41205;44.264;19.884;2023-12-22T13:04:49;281.90;2278.40
55329;DHT22;41205;44.264;19.884;2023-12-22T13:07:24;281.70;2278.40
55329;DHT22;41205;44.264;19.884;2023-12-22T13:09:50;281.70;2278.40
55329;DHT22;41205;44.264;19.884;2023-12-22T13:12:16;281.70;2278.40
55329;DHT22;41205;44.264;19.884;2023-12-22T13:14:43;281.70;2278.40
55329;DHT22;41205;44.264;19.884;2023-12-22T13:17:08;281.70;2278.40
55329;DHT22;41205;44.264;19.884;2023-12-22T13:19:35;281.60;2278.40
55329;DHT22;41205;44.264;19.884;2023-12-22T13:22:01;256.90;2252.80
55329;DHT22;41205;44.264;19.884;2023-12-22T13:24:27;281.70;2278.40
55329;DHT22;41205;44.264;19.884;2023-12-22T13:27:01;281.70;2278.40
55329;DHT22;41205;44.264;19.884;2023-12-22T13:29:27;281.90;2278.40
55329;DHT22;41205;44.264;19.884;2023-12-22T13:31:54;282.10;2278.40
55329;DHT22;41205;44.264;19.884;2023-12-22T13:34:20;282.20;2278.40
55329;DHT22;41205;44.264;19.884;2023-12-22T13:36:46;282.20;2278.40
55329;DHT22;41205;44.264;19.884;2023-12-22T13:39:13;282.10;2278.40
55329;DHT22;41205;44.264;19.884;2023-12-22T13:41:39;282.30;2278.40
55329;DHT22;41205;44.264;19.884;2023-12-22T13:44:12;282.30;2278.40
55329;DHT22;41205;44.264;19.884;2023-12-22T13:46:38;282.50;2278.40
55329;DHT22;41205;44.264;19.884;2023-12-22T13:49:09;307.20;2304.00
55329;DHT22;41205;44.264;19.884;2023-12-22T13:51:43;282.40;2278.40
55329;DHT22;41205;44.264;19.884;2023-12-22T13:54:09;282.50;2278.40
55329;DHT22;41205;44.264;19.884;2023-12-22T13:56:38;282.50;2278.40
55329;DHT22;41205;44.264;19.884;2023-12-22T13:59:08;282.50;2278.40
55329;DHT22;41205;44.264;19.884;2023-12-22T14:01:33;282.50;2278.40
55329;DHT22;41205;44.264;19.884;2023-12-22T14:04:00;282.50;2278.40
55329;DHT22;41205;44.264;19.884;2023-12-22T14:06:26;282.50;2278.40
55329;DHT22;41205;44.264;19.884;2023-12-22T14:08:56;282.40;2278.40
55329;DHT22;41205;44.264;19.884;2023-12-22T14:11:22;282.30;2278.40
55329;DHT22;41205;44.264;19.884;2023-12-22T14:13:48;282.20;2278.40
55329;DHT22;41205;44.264;19.884;2023-12-22T14:16:15;282.10;2278.40
55329;DHT22;41205;44.264;19.884;2023-12-22T14:18:42;282.00;2278.40
55329;DHT22;41205;44.264;19.884;2023-12-22T14:21:08;282.00;2278.40
55329;DHT22;41205;44.264;19.884;2023-12-22T14:23:33;282.00;2278.40
55329;DHT22;41205;44.264;19.884;2023-12-22T14:25:59;282.00;2278.40
55329;DHT22;41205;44.264;19.884;2023-12-22T15:14:32;205.60;2252.80
55329;DHT22;41205;44.264;19.884;2023-12-22T15:16:57;230.80;2252.80
55329;DHT22;41205;44.264;19.884;2023-12-22T15:19:23;230.60;2252.80
55329;DHT22;41205;44.264;19.884;2023-12-22T15:21:49;230.50;2252.80
55329;DHT22;41205;44.264;19.884;2023-12-22T15:24:15;230.50;2252.80
55329;DHT22;41205;44.264;19.884;2023-12-22T15:26:41;230.50;2252.80
55329;DHT22;41205;44.264;19.884;2023-12-22T15:29:08;230.50;2252.80
55329;DHT22;41205;44.264;19.884;2023-12-22T15:31:34;230.40;2252.80
55329;DHT22;41205;44.264;19.884;2023-12-22T15:34:00;205.70;2252.80